sensor_id;sensor_type;location;lat;lon;timestamp;temperature;humidity
29003;DHT22;16102;57.138;-2.118;2023-06-22T00:01:01;18.50;99.90
29003;DHT22;16102;57.138;-2.118;2023-06-22T00:03:28;18.40;99.90
29003;DHT22;16102;57.138;-2.118;2023-06-22T00:05:55;18.40;99.90
29003;DHT22;16102;57.138;-2.118;2023-06-22T00:08:23;18.30;99.90
29003;DHT22;16102;57.138;-2.118;2023-06-22T00:10:50;18.30;99.90
29003;DHT22;16102;57.138;-2.118;2023-06-22T00:13:18;18.30;99.90
29003;DHT22;16102;57.138;-2.118;2023-06-22T00:15:45;18.30;99.90
29003;DHT22;16102;57.138;-2.118;2023-06-22T00:18:13;18.30;99.90
29003;DHT22;16102;57.138;-2.118;2023-06-22T00:20:41;18.20;99.90
29003;DHT22;16102;57.138;-2.118;2023-06-22T00:23:08;18.20;99.90
29003;DHT22;16102;57.138;-2.118;2023-06-22T00:25:37;18.10;99.90
29003;DHT22;16102;57.138;-2.118;2023-06-22T00:28:04;18.00;99.90
29003;DHT22;16102;57.138;-2.118;2023-06-22T00:30:32;17.90;99.90
29003;DHT22;16102;57.138;-2.118;2023-06-22T00:32:59;17.90;99.90
29003;DHT22;16102;57.138;-2.118;2023-06-22T00:35:27;18.00;99.90
29003;DHT22;16102;57.138;-2.118;2023-06-22T00:37:56;17.90;99.90
29003;DHT22;16102;57.138;-2.118;2023-06-22T00:40:32;17.90;99.90
29003;DHT22;16102;57.138;-2.118;2023-06-22T00:42:59;18.00;99.90
29003;DHT22;16102;57.138;-2.118;2023-06-22T00:45:27;17.90;99.90
29003;DHT22;16102;57.138;-2.118;2023-06-22T00:47:57;17.90;99.90
29003;DHT22;16102;57.138;-2.118;2023-06-22T00:50:27;17.90;99.90
29003;DHT22;16102;57.138;-2.118;2023-06-22T00:52:57;17.80;99.90
29003;DHT22;16102;57.138;-2.118;2023-06-22T00:55:25;17.70;99.90
29003;DHT22;16102;57.138;-2.118;2023-06-22T00:57:53;17.80;99.90
29003;DHT22;16102;57.138;-2.118;2023-06-22T01:00:24;17.60;99.90
29003;DHT22;16102;57.138;-2.118;2023-06-22T01:02:52;17.60;99.90
29003;DHT22;16102;57.138;-2.118;2023-06-22T01:05:21;17.60;99.90
29003;DHT22;16102;57.138;-2.118;2023-06-22T01:11:05;17.70;99.90
29003;DHT22;16102;57.138;-2.118;2023-06-22T01:14:00;17.80;99.90
29003;DHT22;16102;57.138;-2.118;2023-06-22T01:16:30;17.80;99.90
29003;DHT22;16102;57.138;-2.118;2023-06-22T01:19:01;17.60;99.90
29003;DHT22;16102;57.138;-2.118;2023-06-22T01:21:31;17.50;99.90
29003;DHT22;16102;57.138;-2.118;2023-06-22T01:24:15;17.40;99.90
29003;DHT22;16102;57.138;-2.118;2023-06-22T01:29:59;17.30;99.90
29003;DHT22;16102;57.138;-2.118;2023-06-22T01:32:33;17.30;99.90
29003;DHT22;16102;57.138;-2.118;2023-06-22T01:35:04;17.30;99.90
29003;DHT22;16102;57.138;-2.118;2023-06-22T01:37:33;17.20;99.90
29003;DHT22;16102;57.138;-2.118;2023-06-22T01:40:02;17.30;99.90
29003;DHT22;16102;57.138;-2.118;2023-06-22T01:42:32;17.20;99.90
29003;DHT22;16102;57.138;-2.118;2023-06-22T01:45:02;17.20;99.90
29003;DHT22;16102;57.138;-2.118;2023-06-22T01:47:29;17.20;99.90
29003;DHT22;16102;57.138;-2.118;2023-06-22T01:49:57;17.30;99.90
29003;DHT22;16102;57.138;-2.118;2023-06-22T01:52:25;17.30;99.90
29003;DHT22;16102;57.138;-2.118;2023-06-22T01:54:52;17.30;99.90
29003;DHT22;16102;57.138;-2.118;2023-06-22T01:57:19;17.40;99.90
29003;DHT22;16102;57.138;-2.118;2023-06-22T02:00:04;17.40;99.90
29003;DHT22;16102;57.138;-2.118;2023-06-22T02:02:45;17.40;99.90
29003;DHT22;16102;57.138;-2.118;2023-06-22T02:05:17;17.40;99.90
29003;DHT22;16102;57.138;-2.118;2023-06-22T02:07:52;17.40;99.90
29003;DHT22;16102;57.138;-2.118;2023-06-22T02:10:20;17.40;99.90
29003;DHT22;16102;57.138;-2.118;2023-06-22T02:12:50;17.30;99.90
29003;DHT22;16102;57.138;-2.118;2023-06-22T02:15:18;17.10;99.90
29003;DHT22;16102;57.138;-2.118;2023-06-22T02:17:46;17.10;99.90
29003;DHT22;16102;57.138;-2.118;2023-06-22T02:20:14;17.10;99.90
29003;DHT22;16102;57.138;-2.118;2023-06-22T02:22:42;16.90;99.90
29003;DHT22;16102;57.138;-2.118;2023-06-22T02:25:09;16.90;99.90
29003;DHT22;16102;57.138;-2.118;2023-06-22T02:27:36;16.90;99.90
29003;DHT22;16102;57.138;-2.118;2023-06-22T02:30:03;16.90;99.90
29003;DHT22;16102;57.138;-2.118;2023-06-22T02:32:31;16.80;99.90
29003;DHT22;16102;57.138;-2.118;2023-06-22T02:35:01;16.90;99.90
29003;DHT22;16102;57.138;-2.118;2023-06-22T02:37:32;16.80;99.90
29003;DHT22;16102;57.138;-2.118;2023-06-22T02:39:59;16.70;99.90
29003;DHT22;16102;57.138;-2.118;2023-06-22T02:42:26;16.60;99.90
29003;DHT22;16102;57.138;-2.118;2023-06-22T02:44:53;16.60;99.90
29003;DHT22;16102;57.138;-2.118;2023-06-22T02:47:20;16.60;99.90
29003;DHT22;16102;57.138;-2.118;2023-06-22T02:49:46;16.50;99.90
29003;DHT22;16102;57.138;-2.118;2023-06-22T02:52:14;16.40;99.90
29003;DHT22;16102;57.138;-2.118;2023-06-22T02:54:41;16.30;99.90
29003;DHT22;16102;57.138;-2.118;2023-06-22T02:57:08;16.30;99.90
29003;DHT22;16102;57.138;-2.118;2023-06-22T02:59:40;16.40;99.90
29003;DHT22;16102;57.138;-2.118;2023-06-22T03:02:09;16.40;99.90
29003;DHT22;16102;57.138;-2.118;2023-06-22T03:04:36;16.50;99.90
29003;DHT22;16102;57.138;-2.118;2023-06-22T03:07:03;16.50;99.90
29003;DHT22;16102;57.138;-2.118;2023-06-22T03:09:32;16.40;99.90
29003;DHT22;16102;57.138;-2.118;2023-06-22T03:11:59;16.40;99.90
29003;DHT22;16102;57.138;-2.118;2023-06-22T03:14:26;16.40;99.90
29003;DHT22;16102;57.138;-2.118;2023-06-22T03:16:53;16.40;99.90
29003;DHT22;16102;57.138;-2.118;2023-06-22T03:19:20;16.50;99.90
29003;DHT22;16102;57.138;-2.118;2023-06-22T03:21:48;16.50;99.90
29003;DHT22;16102;57.138;-2.118;2023-06-22T03:24:15;16.40;99.90
29003;DHT22;16102;57.138;-2.118;2023-06-22T03:26:42;16.50;99.90
29003;DHT22;16102;57.138;-2.118;2023-06-22T03:29:09;16.40;99.90
29003;DHT22;16102;57.138;-2.118;2023-06-22T03:31:37;16.40;99.90
29003;DHT22;16102;57.138;-2.118;2023-06-22T03:34:04;16.30;99.90
29003;DHT22;16102;57.138;-2.118;2023-06-22T03:36:31;16.40;99.90
29003;DHT22;16102;57.138;-2.118;2023-06-22T03:38:59;16.30;99.90
29003;DHT22;16102;57.138;-2.118;2023-06-22T03:41:26;16.20;99.90
29003;DHT22;16102;57.138;-2.118;2023-06-22T03:43:52;16.10;99.90
29003;DHT22;16102;57.138;-2.118;2023-06-22T03:46:20;16.00;99.90
29003;DHT22;16102;57.138;-2.118;2023-06-22T03:48:50;16.00;99.90
29003;DHT22;16102;57.138;-2.118;2023-06-22T03:51:17;16.00;99.90
29003;DHT22;16102;57.138;-2.118;2023-06-22T03:53:44;16.00;99.90
29003;DHT22;16102;57.138;-2.118;2023-06-22T03:56:11;16.00;99.90
29003;DHT22;16102;57.138;-2.118;2023-06-22T03:58:38;16.00;99.90
29003;DHT22;16102;57.138;-2.118;2023-06-22T04:01:10;16.00;99.90
29003;DHT22;16102;57.138;-2.118;2023-06-22T04:03:41;15.90;99.90
29003;DHT22;16102;57.138;-2.118;2023-06-22T04:06:09;16.00;99.90
29003;DHT22;16102;57.138;-2.118;2023-06-22T04:08:36;16.00;99.90
29003;DHT22;16102;57.138;-2.118;2023-06-22T04:11:03;15.90;99.90
29003;DHT22;16102;57.138;-2.118;2023-06-22T04:13:30;15.90;99.90
29003;DHT22;16102;57.138;-2.118;2023-06-22T04:15:57;15.90;99.90
29003;DHT22;16102;57.138;-2.118;2023-06-22T04:18:25;16.00;99.90
29003;DHT22;16102;57.138;-2.118;2023-06-22T04:20:52;16.00;99.90
29003;DHT22;16102;57.138;-2.118;2023-06-22T04:23:19;16.10;99.90
29003;DHT22;16102;57.138;-2.118;2023-06-22T04:25:46;16.10;99.90
29003;DHT22;16102;57.138;-2.118;2023-06-22T04:28:13;16.10;99.90
29003;DHT22;16102;57.138;-2.118;2023-06-22T04:30:40;16.00;99.90
29003;DHT22;16102;57.138;-2.118;2023-06-22T04:33:14;15.80;99.90
29003;DHT22;16102;57.138;-2.118;2023-06-22T04:35:41;15.90;99.90
29003;DHT22;16102;57.138;-2.118;2023-06-22T04:38:09;15.90;99.90
29003;DHT22;16102;57.138;-2.118;2023-06-22T04:40:40;16.00;99.90
29003;DHT22;16102;57.138;-2.118;2023-06-22T04:43:07;15.80;99.90
29003;DHT22;16102;57.138;-2.118;2023-06-22T04:45:37;15.80;99.90
29003;DHT22;16102;57.138;-2.118;2023-06-22T04:48:05;15.80;99.90
29003;DHT22;16102;57.138;-2.118;2023-06-22T04:50:33;15.80;99.90
29003;DHT22;16102;57.138;-2.118;2023-06-22T04:53:00;15.90;99.90
29003;DHT22;16102;57.138;-2.118;2023-06-22T04:55:27;15.90;99.90
29003;DHT22;16102;57.138;-2.118;2023-06-22T04:57:54;15.80;99.90
29003;DHT22;16102;57.138;-2.118;2023-06-22T05:00:21;15.80;99.90
29003;DHT22;16102;57.138;-2.118;2023-06-22T05:02:50;15.80;99.90
29003;DHT22;16102;57.138;-2.118;2023-06-22T05:05:17;15.70;99.90
29003;DHT22;16102;57.138;-2.118;2023-06-22T05:07:46;15.70;99.90
29003;DHT22;16102;57.138;-2.118;2023-06-22T05:10:15;15.70;99.90
29003;DHT22;16102;57.138;-2.118;2023-06-22T05:12:42;15.60;99.90
29003;DHT22;16102;57.138;-2.118;2023-06-22T05:15:09;15.60;99.90
29003;DHT22;16102;57.138;-2.118;2023-06-22T05:17:37;15.50;99.90
29003;DHT22;16102;57.138;-2.118;2023-06-22T05:20:11;15.50;1.00
29003;DHT22;16102;57.138;-2.118;2023-06-22T05:22:39;15.50;1.00
29003;DHT22;16102;57.138;-2.118;2023-06-22T05:25:09;15.30;1.00
29003;DHT22;16102;57.138;-2.118;2023-06-22T05:27:37;15.20;1.00
29003;DHT22;16102;57.138;-2.118;2023-06-22T05:30:07;15.30;1.00
29003;DHT22;16102;57.138;-2.118;2023-06-22T05:32:36;15.40;1.00
29003;DHT22;16102;57.138;-2.118;2023-06-22T05:35:03;15.30;1.00
29003;DHT22;16102;57.138;-2.118;2023-06-22T05:37:30;15.20;1.00
29003;DHT22;16102;57.138;-2.118;2023-06-22T05:39:57;15.00;1.00
29003;DHT22;16102;57.138;-2.118;2023-06-22T05:42:24;15.00;1.00
29003;DHT22;16102;57.138;-2.118;2023-06-22T05:44:53;15.00;1.00
29003;DHT22;16102;57.138;-2.118;2023-06-22T05:47:20;15.10;1.00
29003;DHT22;16102;57.138;-2.118;2023-06-22T05:49:49;15.10;1.00
29003;DHT22;16102;57.138;-2.118;2023-06-22T05:52:16;14.90;1.00
29003;DHT22;16102;57.138;-2.118;2023-06-22T05:54:44;15.00;1.00
29003;DHT22;16102;57.138;-2.118;2023-06-22T05:57:11;14.80;1.00
29003;DHT22;16102;57.138;-2.118;2023-06-22T05:59:38;14.70;1.00
29003;DHT22;16102;57.138;-2.118;2023-06-22T06:02:05;14.70;1.00
29003;DHT22;16102;57.138;-2.118;2023-06-22T06:04:33;14.70;1.00
29003;DHT22;16102;57.138;-2.118;2023-06-22T06:07:00;14.80;1.00
29003;DHT22;16102;57.138;-2.118;2023-06-22T06:09:28;14.80;1.00
29003;DHT22;16102;57.138;-2.118;2023-06-22T06:11:55;14.90;1.00
29003;DHT22;16102;57.138;-2.118;2023-06-22T06:14:22;14.90;1.00
29003;DHT22;16102;57.138;-2.118;2023-06-22T06:16:49;15.00;1.00
29003;DHT22;16102;57.138;-2.118;2023-06-22T06:19:17;15.20;1.00
29003;DHT22;16102;57.138;-2.118;2023-06-22T06:21:44;15.20;1.00
29003;DHT22;16102;57.138;-2.118;2023-06-22T06:24:11;15.30;1.00
29003;DHT22;16102;57.138;-2.118;2023-06-22T06:26:38;15.40;1.00
29003;DHT22;16102;57.138;-2.118;2023-06-22T06:29:08;15.50;1.00
29003;DHT22;16102;57.138;-2.118;2023-06-22T06:31:35;15.40;1.00
29003;DHT22;16102;57.138;-2.118;2023-06-22T06:34:03;15.40;99.90
29003;DHT22;16102;57.138;-2.118;2023-06-22T06:36:30;15.50;99.90
29003;DHT22;16102;57.138;-2.118;2023-06-22T06:38:57;15.50;99.90
29003;DHT22;16102;57.138;-2.118;2023-06-22T06:41:24;15.60;99.90
29003;DHT22;16102;57.138;-2.118;2023-06-22T06:43:51;15.80;99.90
29003;DHT22;16102;57.138;-2.118;2023-06-22T06:46:19;15.90;99.90
29003;DHT22;16102;57.138;-2.118;2023-06-22T06:48:46;15.90;99.90
29003;DHT22;16102;57.138;-2.118;2023-06-22T06:51:14;15.80;99.90
29003;DHT22;16102;57.138;-2.118;2023-06-22T06:53:41;16.00;99.90
29003;DHT22;16102;57.138;-2.118;2023-06-22T06:56:08;16.00;99.90
29003;DHT22;16102;57.138;-2.118;2023-06-22T06:58:42;16.10;99.90
29003;DHT22;16102;57.138;-2.118;2023-06-22T07:01:09;16.00;99.90
29003;DHT22;16102;57.138;-2.118;2023-06-22T07:03:36;16.10;99.90
29003;DHT22;16102;57.138;-2.118;2023-06-22T07:06:04;16.10;99.90
29003;DHT22;16102;57.138;-2.118;2023-06-22T07:08:31;16.20;99.90
29003;DHT22;16102;57.138;-2.118;2023-06-22T07:10:58;16.30;99.90
29003;DHT22;16102;57.138;-2.118;2023-06-22T07:13:25;16.30;99.90
29003;DHT22;16102;57.138;-2.118;2023-06-22T07:15:52;16.30;99.90
29003;DHT22;16102;57.138;-2.118;2023-06-22T07:18:19;16.40;99.90
29003;DHT22;16102;57.138;-2.118;2023-06-22T07:20:46;16.40;99.90
29003;DHT22;16102;57.138;-2.118;2023-06-22T07:23:14;16.40;99.90
29003;DHT22;16102;57.138;-2.118;2023-06-22T07:25:41;16.40;99.90
29003;DHT22;16102;57.138;-2.118;2023-06-22T07:28:08;16.40;99.90
29003;DHT22;16102;57.138;-2.118;2023-06-22T07:30:36;16.40;99.90
29003;DHT22;16102;57.138;-2.118;2023-06-22T07:33:03;16.50;99.90
29003;DHT22;16102;57.138;-2.118;2023-06-22T07:35:31;16.60;99.90
29003;DHT22;16102;57.138;-2.118;2023-06-22T07:37:58;16.70;99.90
29003;DHT22;16102;57.138;-2.118;2023-06-22T07:40:28;16.80;99.90
29003;DHT22;16102;57.138;-2.118;2023-06-22T07:42:56;16.70;99.90
29003;DHT22;16102;57.138;-2.118;2023-06-22T07:45:23;16.70;99.90
29003;DHT22;16102;57.138;-2.118;2023-06-22T07:47:51;16.90;99.90
29003;DHT22;16102;57.138;-2.118;2023-06-22T07:50:18;16.90;99.90
29003;DHT22;16102;57.138;-2.118;2023-06-22T07:52:45;17.00;99.90
29003;DHT22;16102;57.138;-2.118;2023-06-22T07:55:14;17.10;99.90
29003;DHT22;16102;57.138;-2.118;2023-06-22T07:57:41;17.20;99.90
29003;DHT22;16102;57.138;-2.118;2023-06-22T08:00:09;17.30;99.90
29003;DHT22;16102;57.138;-2.118;2023-06-22T08:02:45;17.30;99.90
29003;DHT22;16102;57.138;-2.118;2023-06-22T08:05:15;17.30;99.90
29003;DHT22;16102;57.138;-2.118;2023-06-22T08:07:45;17.40;99.90
29003;DHT22;16102;57.138;-2.118;2023-06-22T08:10:14;17.40;99.90
29003;DHT22;16102;57.138;-2.118;2023-06-22T08:12:42;17.40;99.90
29003;DHT22;16102;57.138;-2.118;2023-06-22T08:15:09;17.50;99.90
29003;DHT22;16102;57.138;-2.118;2023-06-22T08:17:37;17.60;99.90
29003;DHT22;16102;57.138;-2.118;2023-06-22T08:20:07;17.60;99.90
29003;DHT22;16102;57.138;-2.118;2023-06-22T08:22:43;17.60;99.90
29003;DHT22;16102;57.138;-2.118;2023-06-22T08:25:11;17.70;99.90
29003;DHT22;16102;57.138;-2.118;2023-06-22T08:27:38;17.80;99.90
29003;DHT22;16102;57.138;-2.118;2023-06-22T08:30:06;17.90;99.90
29003;DHT22;16102;57.138;-2.118;2023-06-22T08:32:34;17.90;99.90
29003;DHT22;16102;57.138;-2.118;2023-06-22T08:35:01;17.90;99.90
29003;DHT22;16102;57.138;-2.118;2023-06-22T08:37:29;17.90;99.90
29003;DHT22;16102;57.138;-2.118;2023-06-22T08:40:05;17.90;99.90
29003;DHT22;16102;57.138;-2.118;2023-06-22T08:42:33;17.80;99.90
29003;DHT22;16102;57.138;-2.118;2023-06-22T08:45:00;17.80;99.90
29003;DHT22;16102;57.138;-2.118;2023-06-22T08:47:28;17.90;99.90
29003;DHT22;16102;57.138;-2.118;2023-06-22T08:49:55;18.10;99.90
29003;DHT22;16102;57.138;-2.118;2023-06-22T08:52:24;18.30;99.90
29003;DHT22;16102;57.138;-2.118;2023-06-22T08:54:51;18.30;99.90
29003;DHT22;16102;57.138;-2.118;2023-06-22T08:57:18;18.40;99.90
29003;DHT22;16102;57.138;-2.118;2023-06-22T08:59:45;18.50;99.90
29003;DHT22;16102;57.138;-2.118;2023-06-22T09:02:12;18.50;99.90
29003;DHT22;16102;57.138;-2.118;2023-06-22T09:04:39;18.40;99.90
29003;DHT22;16102;57.138;-2.118;2023-06-22T09:07:06;18.60;99.90
29003;DHT22;16102;57.138;-2.118;2023-06-22T09:09:34;18.60;99.90
29003;DHT22;16102;57.138;-2.118;2023-06-22T09:12:01;18.60;99.90
29003;DHT22;16102;57.138;-2.118;2023-06-22T09:14:28;18.50;99.90
29003;DHT22;16102;57.138;-2.118;2023-06-22T09:16:55;18.60;99.90
29003;DHT22;16102;57.138;-2.118;2023-06-22T09:19:22;18.70;99.90
29003;DHT22;16102;57.138;-2.118;2023-06-22T09:21:49;19.00;99.90
29003;DHT22;16102;57.138;-2.118;2023-06-22T09:24:16;19.00;99.90
29003;DHT22;16102;57.138;-2.118;2023-06-22T09:26:43;19.00;99.90
29003;DHT22;16102;57.138;-2.118;2023-06-22T09:29:11;19.00;99.90
29003;DHT22;16102;57.138;-2.118;2023-06-22T09:31:38;19.10;99.90
29003;DHT22;16102;57.138;-2.118;2023-06-22T09:34:05;19.20;99.90
29003;DHT22;16102;57.138;-2.118;2023-06-22T09:36:32;19.20;99.90
29003;DHT22;16102;57.138;-2.118;2023-06-22T09:38:59;19.40;99.90
29003;DHT22;16102;57.138;-2.118;2023-06-22T09:41:28;19.60;99.90
29003;DHT22;16102;57.138;-2.118;2023-06-22T09:43:55;19.70;99.90
29003;DHT22;16102;57.138;-2.118;2023-06-22T09:46:23;19.60;99.90
29003;DHT22;16102;57.138;-2.118;2023-06-22T09:48:52;19.50;99.90
29003;DHT22;16102;57.138;-2.118;2023-06-22T09:51:19;19.20;99.90
29003;DHT22;16102;57.138;-2.118;2023-06-22T09:53:51;19.00;99.90
29003;DHT22;16102;57.138;-2.118;2023-06-22T09:56:18;19.00;99.90
29003;DHT22;16102;57.138;-2.118;2023-06-22T09:58:46;19.20;99.90
29003;DHT22;16102;57.138;-2.118;2023-06-22T10:01:14;19.40;99.90
29003;DHT22;16102;57.138;-2.118;2023-06-22T10:03:41;19.60;99.90
29003;DHT22;16102;57.138;-2.118;2023-06-22T10:06:09;19.80;99.90
29003;DHT22;16102;57.138;-2.118;2023-06-22T10:08:37;20.00;99.90
29003;DHT22;16102;57.138;-2.118;2023-06-22T10:11:06;20.40;99.90
29003;DHT22;16102;57.138;-2.118;2023-06-22T10:13:33;20.80;99.90
29003;DHT22;16102;57.138;-2.118;2023-06-22T10:16:00;21.00;99.90
29003;DHT22;16102;57.138;-2.118;2023-06-22T10:18:27;21.20;99.90
29003;DHT22;16102;57.138;-2.118;2023-06-22T10:20:53;21.40;99.90
29003;DHT22;16102;57.138;-2.118;2023-06-22T10:23:20;21.50;99.90
29003;DHT22;16102;57.138;-2.118;2023-06-22T10:25:48;21.60;99.90
29003;DHT22;16102;57.138;-2.118;2023-06-22T10:28:15;21.70;99.90
29003;DHT22;16102;57.138;-2.118;2023-06-22T10:30:43;21.70;99.90
29003;DHT22;16102;57.138;-2.118;2023-06-22T10:33:11;21.60;99.90
29003;DHT22;16102;57.138;-2.118;2023-06-22T10:35:39;21.50;99.90
29003;DHT22;16102;57.138;-2.118;2023-06-22T10:38:06;21.30;99.90
29003;DHT22;16102;57.138;-2.118;2023-06-22T10:40:33;21.30;99.90
29003;DHT22;16102;57.138;-2.118;2023-06-22T10:43:01;21.10;99.90
29003;DHT22;16102;57.138;-2.118;2023-06-22T10:45:28;21.00;99.90
29003;DHT22;16102;57.138;-2.118;2023-06-22T10:47:56;20.80;99.90
29003;DHT22;16102;57.138;-2.118;2023-06-22T10:50:24;20.60;99.90
29003;DHT22;16102;57.138;-2.118;2023-06-22T10:52:51;20.40;99.90
29003;DHT22;16102;57.138;-2.118;2023-06-22T10:55:18;20.10;99.90
29003;DHT22;16102;57.138;-2.118;2023-06-22T10:57:45;20.10;99.90
29003;DHT22;16102;57.138;-2.118;2023-06-22T11:00:14;20.20;99.90
29003;DHT22;16102;57.138;-2.118;2023-06-22T11:02:43;20.40;99.90
29003;DHT22;16102;57.138;-2.118;2023-06-22T11:05:10;20.50;99.90
29003;DHT22;16102;57.138;-2.118;2023-06-22T11:07:41;20.70;99.90
29003;DHT22;16102;57.138;-2.118;2023-06-22T11:10:13;20.70;99.90
29003;DHT22;16102;57.138;-2.118;2023-06-22T11:12:40;20.80;99.90
29003;DHT22;16102;57.138;-2.118;2023-06-22T11:15:09;21.10;99.90
29003;DHT22;16102;57.138;-2.118;2023-06-22T11:17:36;21.30;99.90
29003;DHT22;16102;57.138;-2.118;2023-06-22T11:20:04;21.60;99.90
29003;DHT22;16102;57.138;-2.118;2023-06-22T11:22:38;22.00;99.90
29003;DHT22;16102;57.138;-2.118;2023-06-22T11:25:06;22.30;99.90
29003;DHT22;16102;57.138;-2.118;2023-06-22T11:27:34;22.20;99.90
29003;DHT22;16102;57.138;-2.118;2023-06-22T11:30:02;22.10;99.90
29003;DHT22;16102;57.138;-2.118;2023-06-22T11:32:29;21.70;99.90
29003;DHT22;16102;57.138;-2.118;2023-06-22T11:34:57;21.50;99.90
29003;DHT22;16102;57.138;-2.118;2023-06-22T11:37:24;22.00;99.90
29003;DHT22;16102;57.138;-2.118;2023-06-22T11:39:51;22.40;99.90
29003;DHT22;16102;57.138;-2.118;2023-06-22T11:42:32;22.80;99.90
29003;DHT22;16102;57.138;-2.118;2023-06-22T11:45:00;23.40;99.90
29003;DHT22;16102;57.138;-2.118;2023-06-22T11:47:27;23.70;99.90
29003;DHT22;16102;57.138;-2.118;2023-06-22T11:49:55;23.90;99.90
29003;DHT22;16102;57.138;-2.118;2023-06-22T11:52:22;23.00;99.90
29003;DHT22;16102;57.138;-2.118;2023-06-22T11:54:49;22.50;99.90
29003;DHT22;16102;57.138;-2.118;2023-06-22T11:57:17;22.40;99.90
29003;DHT22;16102;57.138;-2.118;2023-06-22T11:59:44;21.90;99.90
29003;DHT22;16102;57.138;-2.118;2023-06-22T12:02:11;21.40;99.90
29003;DHT22;16102;57.138;-2.118;2023-06-22T12:04:38;20.70;99.90
29003;DHT22;16102;57.138;-2.118;2023-06-22T12:07:08;20.70;99.90
29003;DHT22;16102;57.138;-2.118;2023-06-22T12:09:35;20.70;99.90
29003;DHT22;16102;57.138;-2.118;2023-06-22T12:12:03;21.30;99.90
29003;DHT22;16102;57.138;-2.118;2023-06-22T12:14:31;22.10;99.90
29003;DHT22;16102;57.138;-2.118;2023-06-22T12:16:58;22.50;99.90
29003;DHT22;16102;57.138;-2.118;2023-06-22T12:19:25;22.60;99.90
29003;DHT22;16102;57.138;-2.118;2023-06-22T12:21:52;23.30;99.90
29003;DHT22;16102;57.138;-2.118;2023-06-22T12:24:19;24.40;99.90
29003;DHT22;16102;57.138;-2.118;2023-06-22T12:26:46;24.30;99.90
29003;DHT22;16102;57.138;-2.118;2023-06-22T12:29:13;25.00;99.90
29003;DHT22;16102;57.138;-2.118;2023-06-22T12:31:40;26.10;99.90
29003;DHT22;16102;57.138;-2.118;2023-06-22T12:34:08;27.00;99.90
29003;DHT22;16102;57.138;-2.118;2023-06-22T12:36:35;27.50;99.90
29003;DHT22;16102;57.138;-2.118;2023-06-22T12:39:02;26.00;99.90
29003;DHT22;16102;57.138;-2.118;2023-06-22T12:41:29;24.90;99.90
29003;DHT22;16102;57.138;-2.118;2023-06-22T12:43:56;24.00;99.90
29003;DHT22;16102;57.138;-2.118;2023-06-22T12:46:23;24.10;99.90
29003;DHT22;16102;57.138;-2.118;2023-06-22T12:48:50;24.00;99.90
29003;DHT22;16102;57.138;-2.118;2023-06-22T12:51:21;25.10;99.90
29003;DHT22;16102;57.138;-2.118;2023-06-22T12:53:49;26.30;99.90
29003;DHT22;16102;57.138;-2.118;2023-06-22T12:56:16;26.30;99.90
29003;DHT22;16102;57.138;-2.118;2023-06-22T12:58:43;26.30;99.90
29003;DHT22;16102;57.138;-2.118;2023-06-22T13:01:13;25.60;99.90
29003;DHT22;16102;57.138;-2.118;2023-06-22T13:03:42;25.00;99.90
29003;DHT22;16102;57.138;-2.118;2023-06-22T13:06:09;24.70;99.90
29003;DHT22;16102;57.138;-2.118;2023-06-22T13:08:36;24.50;99.90
29003;DHT22;16102;57.138;-2.118;2023-06-22T13:11:23;24.10;99.90
29003;DHT22;16102;57.138;-2.118;2023-06-22T13:13:50;24.00;99.90
29003;DHT22;16102;57.138;-2.118;2023-06-22T13:16:17;23.80;99.90
29003;DHT22;16102;57.138;-2.118;2023-06-22T13:18:44;23.70;99.90
29003;DHT22;16102;57.138;-2.118;2023-06-22T13:21:11;23.50;99.90
29003;DHT22;16102;57.138;-2.118;2023-06-22T13:23:38;23.30;99.90
29003;DHT22;16102;57.138;-2.118;2023-06-22T13:26:05;23.10;99.90
29003;DHT22;16102;57.138;-2.118;2023-06-22T13:28:32;23.20;99.90
29003;DHT22;16102;57.138;-2.118;2023-06-22T13:30:59;23.30;99.90
29003;DHT22;16102;57.138;-2.118;2023-06-22T13:33:26;23.20;99.90
29003;DHT22;16102;57.138;-2.118;2023-06-22T13:35:53;22.90;99.90
29003;DHT22;16102;57.138;-2.118;2023-06-22T13:38:20;22.90;99.90
29003;DHT22;16102;57.138;-2.118;2023-06-22T13:40:48;22.60;99.90
29003;DHT22;16102;57.138;-2.118;2023-06-22T13:43:15;22.40;99.90
29003;DHT22;16102;57.138;-2.118;2023-06-22T13:45:43;22.10;99.90
29003;DHT22;16102;57.138;-2.118;2023-06-22T13:48:10;23.00;99.90
29003;DHT22;16102;57.138;-2.118;2023-06-22T13:50:37;24.20;99.90
29003;DHT22;16102;57.138;-2.118;2023-06-22T13:53:04;25.60;99.90
29003;DHT22;16102;57.138;-2.118;2023-06-22T13:55:31;26.60;99.90
29003;DHT22;16102;57.138;-2.118;2023-06-22T13:57:58;27.20;99.90
29003;DHT22;16102;57.138;-2.118;2023-06-22T14:00:25;26.90;99.90
29003;DHT22;16102;57.138;-2.118;2023-06-22T14:02:52;26.40;99.90
29003;DHT22;16102;57.138;-2.118;2023-06-22T14:05:19;26.30;99.90
29003;DHT22;16102;57.138;-2.118;2023-06-22T14:07:46;26.10;99.90
29003;DHT22;16102;57.138;-2.118;2023-06-22T14:10:13;26.10;99.90
29003;DHT22;16102;57.138;-2.118;2023-06-22T14:12:40;25.90;99.90
29003;DHT22;16102;57.138;-2.118;2023-06-22T14:15:07;25.90;99.90
29003;DHT22;16102;57.138;-2.118;2023-06-22T14:17:34;26.60;99.90
29003;DHT22;16102;57.138;-2.118;2023-06-22T14:20:02;27.50;99.90
29003;DHT22;16102;57.138;-2.118;2023-06-22T14:22:29;28.60;99.90
29003;DHT22;16102;57.138;-2.118;2023-06-22T14:24:56;29.10;99.90
29003;DHT22;16102;57.138;-2.118;2023-06-22T14:27:25;28.80;99.90
29003;DHT22;16102;57.138;-2.118;2023-06-22T14:29:52;28.30;99.90
29003;DHT22;16102;57.138;-2.118;2023-06-22T14:32:20;27.90;99.90
29003;DHT22;16102;57.138;-2.118;2023-06-22T14:34:47;27.80;99.90
29003;DHT22;16102;57.138;-2.118;2023-06-22T14:37:14;27.30;99.90
29003;DHT22;16102;57.138;-2.118;2023-06-22T14:39:41;26.80;99.90
29003;DHT22;16102;57.138;-2.118;2023-06-22T14:42:08;26.30;99.90
29003;DHT22;16102;57.138;-2.118;2023-06-22T14:44:35;26.10;99.90
29003;DHT22;16102;57.138;-2.118;2023-06-22T14:47:03;25.80;99.90
29003;DHT22;16102;57.138;-2.118;2023-06-22T14:49:30;25.50;99.90
29003;DHT22;16102;57.138;-2.118;2023-06-22T14:51:57;25.20;99.90
29003;DHT22;16102;57.138;-2.118;2023-06-22T14:54:24;24.90;99.90
29003;DHT22;16102;57.138;-2.118;2023-06-22T14:56:51;24.90;99.90
29003;DHT22;16102;57.138;-2.118;2023-06-22T14:59:18;25.30;99.90
29003;DHT22;16102;57.138;-2.118;2023-06-22T15:01:45;26.00;99.90
29003;DHT22;16102;57.138;-2.118;2023-06-22T15:04:14;26.50;99.90
29003;DHT22;16102;57.138;-2.118;2023-06-22T15:06:42;27.00;99.90
29003;DHT22;16102;57.138;-2.118;2023-06-22T15:09:11;27.00;99.90
29003;DHT22;16102;57.138;-2.118;2023-06-22T15:11:37;26.80;99.90
29003;DHT22;16102;57.138;-2.118;2023-06-22T15:14:04;27.20;99.90
29003;DHT22;16102;57.138;-2.118;2023-06-22T15:16:31;27.50;99.90
29003;DHT22;16102;57.138;-2.118;2023-06-22T15:18:58;27.90;99.90
29003;DHT22;16102;57.138;-2.118;2023-06-22T15:21:25;27.80;99.90
29003;DHT22;16102;57.138;-2.118;2023-06-22T15:23:52;27.90;99.90
29003;DHT22;16102;57.138;-2.118;2023-06-22T15:26:20;27.80;99.90
29003;DHT22;16102;57.138;-2.118;2023-06-22T15:28:47;27.90;99.90